Time;durP1;ratioP1;P1;durP2;ratioP2;P2;SDS_P1;SDS_P2;PMS_P1;PMS_P2;Temp;Humidity;BMP_temperature;BMP_pressure;BME280_temperature;BME280_humidity;BME280_pressure;Samples;Min_cycle;Max_cycle;Signal;HPM_P1;HPM_P2
2021/01/14 00:00:14;;;;;;;26.17;16.83;;;2.30;99.90;;;;;;5010094;28;20668;-76
2021/01/14 00:02:42;;;;;;;29.43;18.17;;;2.30;99.90;;;;;;5012073;28;20286;-71
2021/01/14 00:05:10;;;;;;;30.43;17.30;;;2.30;99.90;;;;;;5012001;28;20243;-73
2021/01/14 00:07:36;;;;;;;28.60;16.87;;;2.30;99.90;;;;;;5014361;28;20303;-72
2021/01/14 00:10:05;;;;;;;30.67;17.00;;;2.30;99.90;;;;;;5012639;28;20298;-73
2021/01/14 00:12:32;;;;;;;30.73;17.40;;;2.30;99.90;;;;;;5008400;28;20357;-72
2021/01/14 00:14:59;;;;;;;35.00;19.83;;;2.30;99.90;;;;;;5011754;28;20239;-72
2021/01/14 00:17:25;;;;;;;30.47;18.83;;;2.30;99.90;;;;;;5011272;28;20234;-73
2021/01/14 00:19:52;;;;;;;32.37;19.10;;;2.30;99.90;;;;;;5014421;28;20649;-72
2021/01/14 00:22:18;;;;;;;34.17;19.60;;;2.20;99.90;;;;;;5009222;28;20904;-71
2021/01/14 00:24:44;;;;;;;29.60;18.47;;;2.20;99.90;;;;;;5011057;28;20711;-72
2021/01/14 00:27:11;;;;;;;31.70;18.43;;;2.20;99.90;;;;;;5012635;28;20275;-71
2021/01/14 00:29:38;;;;;;;31.10;18.73;;;2.20;99.90;;;;;;5015091;28;20235;-73
2021/01/14 00:32:05;;;;;;;34.50;19.07;;;2.20;99.90;;;;;;5014358;28;20311;-72
2021/01/14 00:34:32;;;;;;;36.73;19.37;;;2.20;99.90;;;;;;5013383;28;20208;-71
2021/01/14 00:39:43;;;;;;;32.53;19.60;;;2.20;99.90;;;;;;5012723;28;20245;-72
2021/01/14 00:42:16;;;;;;;27.43;18.70;;;2.30;99.90;;;;;;5009067;28;20349;-72
2021/01/14 00:44:43;;;;;;;34.93;19.90;;;2.30;99.90;;;;;;5016837;28;20248;-72
2021/01/14 00:47:10;;;;;;;30.97;19.27;;;2.20;99.90;;;;;;5012714;28;20209;-72
2021/01/14 00:49:36;;;;;;;28.43;18.07;;;2.30;99.90;;;;;;5013586;28;20712;-73
2021/01/14 00:52:02;;;;;;;31.57;18.37;;;2.20;99.90;;;;;;5012666;28;20237;-72
2021/01/14 00:54:29;;;;;;;35.37;19.37;;;2.20;99.90;;;;;;5012823;28;20717;-72
2021/01/14 00:56:55;;;;;;;34.33;19.23;;;2.20;99.90;;;;;;5013220;28;20613;-72
2021/01/14 00:59:21;;;;;;;29.43;17.90;;;2.20;99.90;;;;;;5010817;28;20284;-72
2021/01/14 01:01:49;;;;;;;34.90;19.13;;;2.20;99.90;;;;;;5012846;28;20290;-72
2021/01/14 01:04:15;;;;;;;28.63;17.83;;;2.20;99.90;;;;;;5008803;28;20217;-73
2021/01/14 01:06:42;;;;;;;39.57;19.00;;;2.20;99.90;;;;;;5014073;28;20203;-73
2021/01/14 01:09:09;;;;;;;28.57;17.23;;;2.20;99.90;;;;;;5010513;28;20270;-72
2021/01/14 01:11:36;;;;;;;30.30;18.00;;;2.20;99.90;;;;;;5008582;28;20292;-73
2021/01/14 01:14:03;;;;;;;31.67;17.97;;;2.20;99.90;;;;;;5012945;28;20676;-72
2021/01/14 01:16:29;;;;;;;28.40;16.73;;;2.30;99.90;;;;;;5009835;28;20573;-72
2021/01/14 01:18:56;;;;;;;32.93;18.83;;;2.30;99.90;;;;;;5011790;28;20651;-72
2021/01/14 01:21:23;;;;;;;28.50;16.37;;;2.30;99.90;;;;;;5011644;28;20261;-72
2021/01/14 01:23:49;;;;;;;31.17;18.63;;;2.40;99.90;;;;;;5014716;28;20219;-71
2021/01/14 01:26:17;;;;;;;31.37;18.57;;;2.40;99.90;;;;;;5011447;28;20618;-73
2021/01/14 01:28:44;;;;;;;31.53;18.20;;;2.30;99.90;;;;;;5012675;28;20290;-72
2021/01/14 01:31:11;;;;;;;30.67;18.03;;;2.30;99.90;;;;;;5013573;28;20231;-72
2021/01/14 01:33:38;;;;;;;30.90;18.43;;;2.40;99.90;;;;;;5013627;28;20204;-72
2021/01/14 01:36:07;;;;;;;32.93;19.07;;;2.30;99.90;;;;;;5009217;28;20290;-73
2021/01/14 01:38:33;;;;;;;34.40;18.63;;;2.30;99.90;;;;;;5012438;28;20214;-73
2021/01/14 01:41:01;;;;;;;31.60;18.47;;;2.40;99.90;;;;;;5012899;28;20237;-72
2021/01/14 01:43:28;;;;;;;30.27;18.20;;;2.40;99.90;;;;;;5012159;28;20217;-73
2021/01/14 01:45:55;;;;;;;31.93;17.67;;;2.40;99.90;;;;;;5010147;28;20208;-72
2021/01/14 01:48:23;;;;;;;30.53;18.30;;;2.40;99.90;;;;;;5007436;28;20645;-71
2021/01/14 01:50:54;;;;;;;30.20;19.00;;;2.40;99.90;;;;;;5011258;28;20230;-71
2021/01/14 01:53:22;;;;;;;31.20;19.33;;;2.40;99.90;;;;;;5013472;28;20199;-71
2021/01/14 01:55:48;;;;;;;28.47;16.93;;;2.40;99.90;;;;;;5010983;28;20265;-71
2021/01/14 01:58:19;;;;;;;32.37;18.27;;;2.40;99.90;;;;;;5012244;28;20200;-72
2021/01/14 02:00:45;;;;;;;32.50;17.80;;;2.40;99.90;;;;;;5012230;28;20204;-72
2021/01/14 02:03:12;;;;;;;30.77;18.27;;;2.30;99.90;;;;;;5015351;28;20216;-73
2021/01/14 02:05:38;;;;;;;33.97;18.93;;;2.30;99.90;;;;;;5012121;28;20713;-73
2021/01/14 02:08:13;;;;;;;29.87;19.17;;;2.30;99.90;;;;;;5009612;28;20229;-73
2021/01/14 02:10:47;;;;;;;32.20;17.87;;;2.30;99.90;;;;;;5013717;28;20229;-72
2021/01/14 02:13:22;;;;;;;30.07;19.30;;;2.30;99.90;;;;;;5011559;28;20230;-73
2021/01/14 02:15:49;;;;;;;29.77;19.40;;;2.20;99.90;;;;;;5009767;28;20285;-74
2021/01/14 02:18:17;;;;;;;32.37;18.70;;;2.30;99.90;;;;;;5008488;28;20601;-74
2021/01/14 02:20:47;;;;;;;36.97;20.40;;;2.20;99.90;;;;;;5014336;28;20207;-73
2021/01/14 02:23:21;;;;;;;32.23;19.30;;;2.30;99.90;;;;;;5015390;28;20222;-74
2021/01/14 02:26:12;;;;;;;37.53;19.83;;;2.20;99.90;;;;;;5009764;28;20634;-75
2021/01/14 02:28:40;;;;;;;32.20;19.13;;;2.20;99.90;;;;;;5008300;28;20199;-73
2021/01/14 02:31:08;;;;;;;30.13;18.63;;;2.20;99.90;;;;;;5011505;28;20227;-73
2021/01/14 02:33:34;;;;;;;36.07;20.60;;;2.20;99.90;;;;;;5012545;28;20249;-73
2021/01/14 02:36:01;;;;;;;35.87;20.10;;;2.20;99.90;;;;;;5012324;28;20282;-73
2021/01/14 02:38:27;;;;;;;33.33;18.93;;;2.20;99.90;;;;;;5011527;28;20581;-73
2021/01/14 02:40:55;;;;;;;35.57;19.77;;;2.20;99.90;;;;;;5011483;28;20617;-72
2021/01/14 02:43:21;;;;;;;37.30;20.37;;;2.20;99.90;;;;;;5008769;28;20666;-72
2021/01/14 02:45:48;;;;;;;36.47;19.47;;;2.20;99.90;;;;;;5006418;28;20303;-74
2021/01/14 02:48:20;;;;;;;39.50;20.83;;;2.20;99.90;;;;;;5010698;28;20210;-74
2021/01/14 02:50:52;;;;;;;32.77;20.03;;;2.10;99.90;;;;;;5015287;28;20195;-74
2021/01/14 02:53:21;;;;;;;37.17;20.83;;;2.10;99.90;;;;;;5013381;28;21131;-75
2021/01/14 02:55:49;;;;;;;40.47;22.47;;;2.00;99.90;;;;;;5011064;28;20246;-73
2021/01/14 02:58:16;;;;;;;35.17;21.33;;;2.00;99.90;;;;;;5009922;28;20290;-73
2021/01/14 03:00:42;;;;;;;36.47;21.10;;;2.00;99.90;;;;;;5012607;28;20230;-73
2021/01/14 03:03:08;;;;;;;40.87;21.63;;;2.00;99.90;;;;;;5013706;28;20212;-74
2021/01/14 03:05:35;;;;;;;34.87;21.17;;;2.00;99.90;;;;;;5010142;28;20235;-74
2021/01/14 03:08:01;;;;;;;36.40;20.47;;;2.00;99.90;;;;;;5010598;28;20203;-74
2021/01/14 03:10:28;;;;;;;34.30;20.57;;;1.90;99.90;;;;;;5012117;28;20227;-73
2021/01/14 03:12:56;;;;;;;38.27;21.83;;;1.90;99.90;;;;;;5012560;28;20237;-73
2021/01/14 03:15:23;;;;;;;42.73;23.20;;;1.80;99.90;;;;;;5012478;28;20240;-73
2021/01/14 03:17:50;;;;;;;39.50;23.30;;;1.80;99.90;;;;;;5013283;28;20253;-73
2021/01/14 03:20:17;;;;;;;43.10;22.37;;;1.80;99.90;;;;;;5009933;28;20246;-73
2021/01/14 03:22:43;;;;;;;44.40;25.33;;;1.80;99.90;;;;;;5013989;28;20214;-74
2021/01/14 03:25:11;;;;;;;39.23;22.57;;;1.80;99.90;;;;;;5013737;28;20712;-73
2021/01/14 03:27:39;;;;;;;43.83;23.33;;;1.80;99.90;;;;;;5010956;28;20219;-74
2021/01/14 03:30:08;;;;;;;44.97;23.83;;;1.80;99.90;;;;;;5010442;28;20576;-75
2021/01/14 03:32:35;;;;;;;50.50;25.93;;;1.80;99.90;;;;;;5041329;28;20595;-74
2021/01/14 03:35:02;;;;;;;48.63;26.20;;;1.80;99.90;;;;;;5013879;28;20204;-74
2021/01/14 03:37:28;;;;;;;48.93;26.37;;;1.80;99.90;;;;;;5016456;28;20294;-76
2021/01/14 03:39:55;;;;;;;48.60;26.60;;;1.80;99.90;;;;;;5012415;28;20215;-74
2021/01/14 03:42:22;;;;;;;49.23;26.70;;;1.80;99.90;;;;;;5013746;28;20199;-74
2021/01/14 03:44:49;;;;;;;49.03;25.73;;;1.70;99.90;;;;;;5013954;28;20213;-75
2021/01/14 03:47:16;;;;;;;44.77;25.63;;;1.70;99.90;;;;;;5014083;28;20226;-75
2021/01/14 03:49:44;;;;;;;47.43;27.10;;;1.70;99.90;;;;;;5014540;28;20211;-74
2021/01/14 03:52:11;;;;;;;45.97;26.87;;;1.70;99.90;;;;;;5013497;28;20580;-74
2021/01/14 03:54:37;;;;;;;48.57;26.13;;;1.70;99.90;;;;;;5015133;28;20308;-74
2021/01/14 03:57:04;;;;;;;46.80;24.93;;;1.70;99.90;;;;;;5015627;28;20208;-73
2021/01/14 03:59:31;;;;;;;43.97;24.60;;;1.70;99.90;;;;;;5016116;28;20290;-74
2021/01/14 04:02:06;;;;;;;43.07;23.97;;;1.70;99.90;;;;;;5013178;28;20246;-75
2021/01/14 04:04:33;;;;;;;39.63;23.40;;;1.70;99.90;;;;;;5014871;28;20316;-75
2021/01/14 04:07:00;;;;;;;37.03;21.90;;;1.70;99.90;;;;;;5016729;28;20243;-75
2021/01/14 04:09:27;;;;;;;38.80;21.00;;;1.70;99.90;;;;;;5013357;28;20696;-76
2021/01/14 04:11:54;;;;;;;40.37;22.87;;;1.70;99.90;;;;;;5013207;28;20237;-73
2021/01/14 04:14:21;;;;;;;39.47;22.40;;;1.70;99.90;;;;;;5010903;28;20673;-72
2021/01/14 04:16:50;;;;;;;44.90;21.50;;;1.70;99.90;;;;;;5013422;28;20243;-74
2021/01/14 04:19:16;;;;;;;43.70;23.43;;;1.70;99.90;;;;;;5014391;28;20234;-74
2021/01/14 04:21:43;;;;;;;40.90;21.50;;;1.70;99.90;;;;;;5014180;28;20254;-73
2021/01/14 04:24:11;;;;;;;36.57;22.07;;;1.80;99.90;;;;;;5010838;28;20687;-73
2021/01/14 04:26:37;;;;;;;40.23;21.37;;;1.70;99.90;;;;;;5015310;28;20560;-74
2021/01/14 04:29:04;;;;;;;43.50;22.43;;;1.70;99.90;;;;;;5005255;28;20302;-73
2021/01/14 04:31:31;;;;;;;36.53;20.83;;;1.70;99.90;;;;;;5011668;28;20227;-73
2021/01/14 04:33:57;;;;;;;36.70;21.43;;;1.70;99.90;;;;;;5009494;28;20211;-74
2021/01/14 04:36:24;;;;;;;39.60;21.13;;;1.60;99.90;;;;;;5014907;28;20644;-75
2021/01/14 04:38:50;;;;;;;33.43;20.07;;;1.60;99.90;;;;;;5014759;28;20253;-73
2021/01/14 04:41:20;;;;;;;39.53;21.43;;;1.60;99.90;;;;;;5007940;28;20289;-74
2021/01/14 04:43:47;;;;;;;39.37;21.73;;;1.60;99.90;;;;;;5011194;28;20641;-74
2021/01/14 04:46:14;;;;;;;37.63;20.90;;;1.60;99.90;;;;;;5014131;28;20203;-74
2021/01/14 04:48:43;;;;;;;38.57;21.20;;;1.70;99.90;;;;;;5014750;28;20260;-73
2021/01/14 04:51:11;;;;;;;40.60;21.10;;;1.80;99.90;;;;;;5010814;28;20319;-73
2021/01/14 04:53:39;;;;;;;36.57;21.00;;;1.70;99.90;;;;;;5008566;28;20234;-73
2021/01/14 04:56:07;;;;;;;38.83;21.13;;;1.70;99.90;;;;;;5014068;28;20218;-73
2021/01/14 04:58:35;;;;;;;36.00;19.83;;;1.70;99.90;;;;;;5014976;28;20223;-73
2021/01/14 05:01:06;;;;;;;35.20;20.40;;;1.60;99.90;;;;;;5013184;28;20234;-74
2021/01/14 05:03:34;;;;;;;39.00;21.17;;;1.60;99.90;;;;;;5011462;28;20318;-74
2021/01/14 05:06:02;;;;;;;34.33;20.03;;;1.60;99.90;;;;;;5015358;28;20234;-75
2021/01/14 05:08:31;;;;;;;34.67;19.07;;;1.50;99.90;;;;;;5014776;28;20215;-74
2021/01/14 05:10:58;;;;;;;33.30;18.80;;;1.50;99.90;;;;;;5005676;28;20295;-74
2021/01/14 05:13:28;;;;;;;34.30;18.07;;;1.40;99.90;;;;;;5009455;28;20222;-76
2021/01/14 05:15:55;;;;;;;34.73;19.93;;;1.50;99.90;;;;;;5015997;28;20215;-75
2021/01/14 05:18:21;;;;;;;33.83;20.07;;;1.40;99.90;;;;;;5012073;28;20214;-75
2021/01/14 05:20:48;;;;;;;36.03;18.97;;;1.40;99.90;;;;;;5012362;28;20322;-75
2021/01/14 05:23:19;;;;;;;33.30;18.77;;;1.40;99.90;;;;;;5008941;28;20575;-75
2021/01/14 05:25:51;;;;;;;35.07;20.73;;;1.40;99.90;;;;;;5012964;28;20226;-74
2021/01/14 05:28:19;;;;;;;36.43;20.23;;;1.40;99.90;;;;;;5013408;28;20215;-74
2021/01/14 05:30:46;;;;;;;34.33;20.37;;;1.40;99.90;;;;;;5014457;28;20322;-74
2021/01/14 05:33:14;;;;;;;41.07;21.23;;;1.40;99.90;;;;;;5011013;28;20203;-75
2021/01/14 05:35:47;;;;;;;41.67;21.07;;;1.40;99.90;;;;;;5009781;28;20298;-74
2021/01/14 05:38:27;;;;;;;37.13;20.53;;;1.40;99.90;;;;;;5011136;28;20203;-75
2021/01/14 05:43:51;;;;;;;39.00;20.63;;;1.40;99.90;;;;;;5007282;28;20198;-75
2021/01/14 05:46:19;;;;;;;41.63;21.70;;;1.40;99.90;;;;;;5009189;28;20207;-74
2021/01/14 05:48:47;;;;;;;38.43;21.57;;;1.40;99.90;;;;;;5010792;28;20286;-75
2021/01/14 05:51:16;;;;;;;39.93;21.40;;;1.50;99.90;;;;;;5011013;28;20782;-75
2021/01/14 05:53:54;;;;;;;44.07;22.93;;;1.50;99.90;;;;;;5011412;28;20299;-75
2021/01/14 05:56:29;;;;;;;37.73;20.93;;;1.40;99.90;;;;;;5011188;28;20207;-76
2021/01/14 05:58:56;;;;;;;34.93;20.87;;;1.40;99.90;;;;;;5010200;28;20289;-76
2021/01/14 06:01:24;;;;;;;41.10;21.37;;;1.40;99.90;;;;;;5007828;28;20215;-76
2021/01/14 06:03:51;;;;;;;33.97;20.03;;;1.40;99.90;;;;;;5009390;28;20239;-75
2021/01/14 06:06:19;;;;;;;43.93;22.20;;;1.40;99.90;;;;;;5012304;28;20520;-76
2021/01/14 06:08:46;;;;;;;42.37;23.37;;;1.30;99.90;;;;;;5011540;28;20659;-74
2021/01/14 06:11:20;;;;;;;36.30;21.53;;;1.30;99.90;;;;;;5008772;28;20759;-74
2021/01/14 06:13:46;;;;;;;41.70;20.93;;;1.30;99.90;;;;;;5007641;28;20223;-74
2021/01/14 06:16:13;;;;;;;38.07;19.87;;;1.30;99.90;;;;;;5012886;28;20282;-73
2021/01/14 06:18:39;;;;;;;36.70;19.57;;;1.30;99.90;;;;;;5011836;28;20306;-73
2021/01/14 06:21:07;;;;;;;37.97;18.87;;;1.30;99.90;;;;;;5012070;28;20290;-74
2021/01/14 06:23:47;;;;;;;35.77;18.80;;;1.30;99.90;;;;;;5009550;28;20205;-74
2021/01/14 06:26:26;;;;;;;34.80;18.33;;;1.20;99.90;;;;;;5011444;28;20202;-74
2021/01/14 06:28:53;;;;;;;29.53;17.23;;;1.10;99.90;;;;;;5010341;28;20218;-74
2021/01/14 06:31:26;;;;;;;33.63;18.13;;;1.10;99.90;;;;;;5012126;28;20229;-74
2021/01/14 06:33:55;;;;;;;35.00;19.13;;;1.10;99.90;;;;;;5007649;28;20204;-75
2021/01/14 06:36:32;;;;;;;37.57;19.73;;;1.10;99.90;;;;;;5010421;28;20206;-74
2021/01/14 06:39:08;;;;;;;35.87;19.73;;;1.10;99.90;;;;;;5011304;28;20233;-75
2021/01/14 06:41:38;;;;;;;36.80;20.93;;;1.10;99.90;;;;;;5013677;28;20201;-73
2021/01/14 06:44:07;;;;;;;43.70;20.90;;;1.00;99.90;;;;;;5011003;28;20218;-75
2021/01/14 06:46:35;;;;;;;39.87;21.53;;;1.10;99.90;;;;;;5010454;28;20207;-74
2021/01/14 06:49:08;;;;;;;40.03;21.90;;;1.10;99.90;;;;;;5010044;28;20583;-74
2021/01/14 06:51:54;;;;;;;43.57;23.77;;;1.10;99.90;;;;;;5008666;28;20242;-73
2021/01/14 06:54:22;;;;;;;41.77;23.70;;;1.10;99.90;;;;;;5011470;28;20290;-74
2021/01/14 06:56:55;;;;;;;48.47;25.97;;;1.10;99.90;;;;;;5011391;28;20654;-75
2021/01/14 06:59:23;;;;;;;46.43;24.23;;;1.10;99.90;;;;;;5012379;28;20210;-73
2021/01/14 07:02:29;;;;;;;51.53;26.57;;;1.20;99.90;;;;;;5008372;28;20212;-72
2021/01/14 07:05:02;;;;;;;53.83;23.93;;;1.20;99.90;;;;;;5004387;28;20238;-74
2021/01/14 07:07:56;;;;;;;48.63;23.40;;;1.30;99.90;;;;;;5009857;28;20208;-73
2021/01/14 07:10:24;;;;;;;44.33;23.60;;;1.30;99.90;;;;;;5010400;28;20203;-72
2021/01/14 07:12:52;;;;;;;46.07;23.03;;;1.30;99.90;;;;;;5013619;28;20254;-74
2021/01/14 07:15:19;;;;;;;44.13;21.97;;;1.20;99.90;;;;;;5008425;28;20262;-74
2021/01/14 07:17:46;;;;;;;43.27;22.03;;;1.20;99.90;;;;;;5008197;28;20231;-73
2021/01/14 07:20:14;;;;;;;40.30;22.47;;;1.10;99.90;;;;;;5014779;28;20204;-74
2021/01/14 07:22:46;;;;;;;39.47;20.80;;;1.20;99.90;;;;;;5014349;28;20234;-74
2021/01/14 07:25:15;;;;;;;41.97;21.07;;;1.20;99.90;;;;;;5010036;28;20207;-74
2021/01/14 07:27:43;;;;;;;40.10;22.53;;;1.20;99.90;;;;;;5014408;28;20215;-74
2021/01/14 07:30:10;;;;;;;39.63;21.73;;;1.20;99.90;;;;;;5012656;28;20234;-73
2021/01/14 07:32:57;;;;;;;45.83;23.20;;;1.20;99.90;;;;;;5010004;28;20771;-75
2021/01/14 07:35:41;;;;;;;40.57;22.80;;;1.20;99.90;;;;;;5014215;28;20736;-72
2021/01/14 07:38:09;;;;;;;40.97;21.53;;;1.20;99.90;;;;;;5012946;28;20210;-72
2021/01/14 07:40:38;;;;;;;37.23;19.57;;;1.30;99.90;;;;;;5009552;28;20374;-72
2021/01/14 07:43:05;;;;;;;42.50;21.23;;;1.40;99.90;;;;;;5008866;28;20212;-73
2021/01/14 07:45:33;;;;;;;42.10;20.87;;;1.30;99.90;;;;;;5011354;28;20265;-73
2021/01/14 07:48:18;;;;;;;40.20;21.83;;;1.30;99.90;;;;;;5014715;28;20296;-72
2021/01/14 07:50:52;;;;;;;41.67;22.77;;;1.20;99.90;;;;;;5011631;28;20207;-73
2021/01/14 07:53:19;;;;;;;43.43;23.03;;;1.30;99.90;;;;;;5004479;28;20250;-72
2021/01/14 07:55:47;;;;;;;43.47;23.00;;;1.30;99.90;;;;;;5013290;28;20199;-72
2021/01/14 07:58:21;;;;;;;39.80;21.70;;;1.40;99.90;;;;;;5012326;28;20231;-72
2021/01/14 08:01:02;;;;;;;42.47;22.17;;;1.30;99.90;;;;;;5014977;28;20214;-72
2021/01/14 08:03:38;;;;;;;34.37;21.57;;;1.30;99.90;;;;;;5013725;28;20238;-72
2021/01/14 08:06:25;;;;;;;42.50;21.73;;;1.30;99.90;;;;;;5010779;28;21154;-72
2021/01/14 08:09:03;;;;;;;37.43;19.43;;;1.20;99.90;;;;;;5010563;28;20203;-71
2021/01/14 08:11:32;;;;;;;36.73;19.60;;;1.20;99.90;;;;;;5012118;28;20243;-71
2021/01/14 08:14:09;;;;;;;37.40;19.43;;;1.10;99.90;;;;;;5008373;28;20222;-71
2021/01/14 08:16:40;;;;;;;38.87;21.03;;;1.10;99.90;;;;;;5009735;28;20267;-74
2021/01/14 08:19:18;;;;;;;37.20;20.17;;;1.10;99.90;;;;;;5013806;28;20265;-74
2021/01/14 08:21:46;;;;;;;36.60;19.83;;;1.00;99.90;;;;;;5006603;28;20886;-73
2021/01/14 08:24:28;;;;;;;36.37;19.20;;;1.00;99.90;;;;;;5011036;28;20294;-74
2021/01/14 08:26:59;;;;;;;45.50;19.73;;;1.00;99.90;;;;;;5015444;28;20219;-76
2021/01/14 08:29:30;;;;;;;37.13;19.10;;;1.00;99.90;;;;;;5017166;28;20326;-76
2021/01/14 08:31:57;;;;;;;39.27;19.23;;;1.00;99.90;;;;;;5011629;28;20223;-72
2021/01/14 08:34:25;;;;;;;38.23;19.60;;;1.00;99.90;;;;;;5008734;28;20208;-72
2021/01/14 08:36:54;;;;;;;38.43;19.37;;;0.90;99.90;;;;;;5012846;28;20212;-72
2021/01/14 08:39:22;;;;;;;43.10;20.53;;;0.90;99.90;;;;;;5017645;28;20302;-73
2021/01/14 08:41:49;;;;;;;36.43;19.93;;;0.80;99.90;;;;;;5014714;28;20199;-73
2021/01/14 08:44:19;;;;;;;37.67;20.30;;;0.80;99.90;;;;;;5015189;28;20207;-74
2021/01/14 08:46:50;;;;;;;39.43;20.10;;;0.80;99.90;;;;;;5016684;28;20211;-73
2021/01/14 08:49:18;;;;;;;41.43;21.43;;;0.80;99.90;;;;;;5014701;28;20270;-75
2021/01/14 08:51:45;;;;;;;38.83;20.57;;;0.80;99.90;;;;;;5013114;28;20318;-74
2021/01/14 08:54:13;;;;;;;35.30;19.83;;;0.90;99.90;;;;;;5015955;28;20218;-74
2021/01/14 08:56:40;;;;;;;31.60;18.03;;;0.90;99.90;;;;;;5013393;28;20228;-75
2021/01/14 08:59:14;;;;;;;33.93;17.00;;;1.00;99.90;;;;;;5008326;28;20267;-74
2021/01/14 09:01:41;;;;;;;31.00;16.93;;;1.10;99.90;;;;;;5008154;28;20235;-74
2021/01/14 09:04:09;;;;;;;31.73;17.97;;;1.10;99.90;;;;;;5011587;28;20310;-74
2021/01/14 09:06:38;;;;;;;32.97;17.37;;;1.30;99.90;;;;;;5048050;28;20704;-76
2021/01/14 09:09:06;;;;;;;32.97;15.77;;;1.30;99.90;;;;;;5009180;28;20266;-74
2021/01/14 09:11:34;;;;;;;32.17;16.33;;;1.30;99.90;;;;;;5011811;28;20231;-75
2021/01/14 09:14:05;;;;;;;31.27;16.00;;;1.30;99.90;;;;;;5011189;28;20215;-74
2021/01/14 09:16:31;;;;;;;34.07;16.27;;;1.30;99.90;;;;;;5010848;28;20214;-72
2021/01/14 09:18:59;;;;;;;31.17;17.30;;;1.20;99.90;;;;;;5006856;28;20669;-74
2021/01/14 09:21:25;;;;;;;30.73;17.17;;;1.20;99.90;;;;;;5014707;28;20207;-73
2021/01/14 09:23:52;;;;;;;30.87;16.40;;;1.30;99.90;;;;;;5001421;28;20238;-73
2021/01/14 09:26:20;;;;;;;30.83;16.53;;;1.40;99.90;;;;;;5010366;28;20254;-76
2021/01/14 09:28:51;;;;;;;28.83;16.87;;;1.30;99.90;;;;;;5011070;28;20218;-74
2021/01/14 09:31:17;;;;;;;31.17;16.40;;;1.30;99.90;;;;;;5010896;28;20217;-75
2021/01/14 09:33:46;;;;;;;33.67;16.27;;;1.30;99.90;;;;;;5008122;28;20203;-75
2021/01/14 09:36:15;;;;;;;30.20;16.23;;;1.30;99.90;;;;;;5009103;28;20254;-74
2021/01/14 09:38:47;;;;;;;31.63;17.17;;;1.30;99.90;;;;;;5014856;28;20567;-74
2021/01/14 09:41:19;;;;;;;31.70;16.30;;;1.30;99.90;;;;;;5013296;28;20295;-76
2021/01/14 09:43:48;;;;;;;32.40;17.03;;;1.30;99.90;;;;;;5005333;28;20220;-76
2021/01/14 09:46:15;;;;;;;31.27;15.87;;;1.30;99.90;;;;;;5015428;28;20586;-74
2021/01/14 09:48:42;;;;;;;33.00;16.47;;;1.30;99.90;;;;;;5016395;28;20227;-74
2021/01/14 09:51:13;;;;;;;36.77;16.93;;;1.30;99.90;;;;;;5008139;28;20586;-73
2021/01/14 09:53:48;;;;;;;29.53;15.10;;;1.30;99.90;;;;;;5004291;28;20288;-74
2021/01/14 09:56:22;;;;;;;31.90;15.63;;;1.40;99.90;;;;;;5012266;28;20627;-74
2021/01/14 09:58:54;;;;;;;28.33;14.57;;;1.50;99.90;;;;;;5005901;28;20283;-75
2021/01/14 10:01:24;;;;;;;27.10;14.73;;;1.50;99.90;;;;;;5000392;28;20290;-72
2021/01/14 10:03:59;;;;;;;28.17;14.87;;;1.60;99.90;;;;;;5000557;28;20254;-73
2021/01/14 10:06:26;;;;;;;29.17;14.07;;;1.70;99.90;;;;;;4996453;28;20247;-72
2021/01/14 10:08:53;;;;;;;24.87;14.60;;;1.70;99.90;;;;;;5010606;28;20211;-74
2021/01/14 10:11:21;;;;;;;30.53;15.57;;;1.80;99.90;;;;;;5009088;28;20232;-72
2021/01/14 10:13:52;;;;;;;27.77;13.90;;;1.80;99.90;;;;;;5000251;28;20218;-73
2021/01/14 10:16:22;;;;;;;27.53;13.70;;;1.80;99.90;;;;;;5005563;28;20293;-74
2021/01/14 10:18:49;;;;;;;26.87;13.80;;;1.80;99.90;;;;;;5006123;28;20289;-74
2021/01/14 10:21:23;;;;;;;25.07;13.60;;;1.90;99.90;;;;;;5014252;28;20687;-71
2021/01/14 10:23:50;;;;;;;24.20;13.80;;;1.80;99.90;;;;;;5006472;28;20203;-72
2021/01/14 10:26:28;;;;;;;23.63;12.90;;;1.90;99.90;;;;;;5009123;28;20262;-73
2021/01/14 10:28:54;;;;;;;25.53;13.23;;;1.90;99.90;;;;;;5013786;28;20354;-73
2021/01/14 10:31:37;;;;;;;21.77;11.93;;;1.90;99.90;;;;;;5011599;28;20274;-73
2021/01/14 10:34:03;;;;;;;22.20;12.07;;;2.10;99.90;;;;;;5006717;28;20744;-74
2021/01/14 10:36:48;;;;;;;25.30;12.33;;;2.30;99.90;;;;;;5012221;28;20657;-73
2021/01/14 10:39:17;;;;;;;25.20;13.47;;;2.50;99.90;;;;;;5009961;28;20290;-74
2021/01/14 10:41:44;;;;;;;26.83;13.63;;;2.60;99.90;;;;;;5004645;28;20211;-73
2021/01/14 10:44:11;;;;;;;22.33;13.27;;;2.60;99.90;;;;;;5013422;28;20281;-73
2021/01/14 10:46:40;;;;;;;20.90;12.73;;;2.60;99.90;;;;;;5012703;28;20230;-73
2021/01/14 10:49:11;;;;;;;24.23;13.27;;;2.60;99.90;;;;;;5013156;28;20239;-73
2021/01/14 10:51:40;;;;;;;25.13;13.67;;;2.60;99.90;;;;;;5010645;28;20294;-73
2021/01/14 10:54:07;;;;;;;23.50;12.43;;;2.60;99.90;;;;;;5015256;28;20219;-73
2021/01/14 10:56:52;;;;;;;23.07;13.43;;;2.60;99.90;;;;;;5004568;28;20354;-72
2021/01/14 10:59:23;;;;;;;23.97;12.30;;;2.50;99.90;;;;;;5016023;28;20207;-73
2021/01/14 11:02:04;;;;;;;23.57;12.73;;;2.30;99.90;;;;;;5017729;28;20549;-73
2021/01/14 11:04:30;;;;;;;23.50;12.83;;;2.30;99.90;;;;;;5013592;28;20210;-73
2021/01/14 11:06:57;;;;;;;22.83;13.33;;;2.20;99.90;;;;;;5010907;28;20318;-74
2021/01/14 11:09:23;;;;;;;25.17;13.23;;;2.10;99.90;;;;;;5015274;28;20298;-73
2021/01/14 11:11:51;;;;;;;23.73;12.63;;;2.10;99.90;;;;;;5012149;28;20745;-74
2021/01/14 11:14:18;;;;;;;19.17;11.53;;;2.00;99.90;;;;;;5012109;28;20245;-74
2021/01/14 11:16:44;;;;;;;25.57;13.47;;;2.00;99.90;;;;;;5015764;28;20212;-74
2021/01/14 11:19:11;;;;;;;22.80;13.43;;;1.90;99.90;;;;;;5008688;28;20271;-74
2021/01/14 11:21:38;;;;;;;24.30;13.93;;;1.90;99.90;;;;;;5014794;28;20276;-75
2021/01/14 11:24:06;;;;;;;20.63;12.60;;;1.80;99.90;;;;;;5016585;28;20616;-75
2021/01/14 11:26:33;;;;;;;18.63;11.83;;;1.80;99.90;;;;;;5011966;28;20215;-74
2021/01/14 11:29:01;;;;;;;21.07;11.87;;;1.80;99.90;;;;;;5015029;28;20203;-74
2021/01/14 11:31:27;;;;;;;25.23;12.93;;;1.70;99.90;;;;;;5015005;28;20226;-74
2021/01/14 11:33:54;;;;;;;22.17;12.27;;;1.70;99.90;;;;;;5013384;28;20206;-72
2021/01/14 11:36:22;;;;;;;20.63;11.43;;;1.60;99.90;;;;;;5013427;28;20254;-75
2021/01/14 11:38:50;;;;;;;21.13;10.30;;;1.60;99.90;;;;;;5015274;28;20303;-73
2021/01/14 11:41:17;;;;;;;16.47;9.20;;;1.50;99.90;;;;;;5013783;28;20298;-74
2021/01/14 11:43:44;;;;;;;15.40;9.77;;;1.50;99.90;;;;;;5013062;28;20345;-75
2021/01/14 11:46:14;;;;;;;14.37;8.63;;;1.40;99.90;;;;;;5012498;28;20215;-75
2021/01/14 11:48:40;;;;;;;16.03;9.73;;;1.30;99.90;;;;;;5011946;28;20208;-75
2021/01/14 11:51:07;;;;;;;16.13;9.50;;;1.20;99.90;;;;;;5015070;28;20289;-75
2021/01/14 11:53:33;;;;;;;16.60;10.30;;;1.10;99.90;;;;;;5015474;28;20362;-74
2021/01/14 11:55:59;;;;;;;16.33;10.30;;;1.10;99.90;;;;;;5014644;28;20215;-74
2021/01/14 11:58:26;;;;;;;17.07;10.77;;;1.00;99.90;;;;;;5016713;28;20207;-75
2021/01/14 12:00:52;;;;;;;20.10;10.80;;;0.90;99.90;;;;;;5016941;28;20294;-74
2021/01/14 12:03:20;;;;;;;18.67;10.97;;;0.90;99.90;;;;;;5015275;28;20211;-74
2021/01/14 12:05:46;;;;;;;18.27;11.00;;;0.90;99.90;;;;;;5019821;28;20286;-74
2021/01/14 12:08:12;;;;;;;17.17;10.03;;;0.80;99.90;;;;;;5016025;28;20211;-76
2021/01/14 12:10:39;;;;;;;17.47;10.70;;;0.80;99.90;;;;;;5016695;28;20273;-74
2021/01/14 12:13:06;;;;;;;18.03;11.00;;;0.80;99.90;;;;;;5012814;28;20711;-74
2021/01/14 12:15:32;;;;;;;17.87;10.20;;;0.80;99.90;;;;;;5004612;28;20211;-74
2021/01/14 12:17:58;;;;;;;16.00;8.87;;;0.70;99.90;;;;;;5016230;28;20294;-74
2021/01/14 12:20:26;;;;;;;13.77;8.47;;;0.60;99.90;;;;;;5018076;28;20714;-74
2021/01/14 12:22:52;;;;;;;16.53;9.27;;;0.50;99.90;;;;;;5007449;28;20235;-75
2021/01/14 12:25:19;;;;;;;15.37;9.60;;;0.40;99.90;;;;;;5017087;28;20275;-73
2021/01/14 12:27:45;;;;;;;16.17;9.73;;;0.30;99.90;;;;;;5016126;28;20243;-74
2021/01/14 12:30:12;;;;;;;14.67;10.43;;;0.30;99.90;;;;;;5015532;28;20253;-74
2021/01/14 12:32:39;;;;;;;17.07;10.87;;;0.20;99.90;;;;;;5015229;28;20345;-74
2021/01/14 12:35:07;;;;;;;24.33;12.00;;;0.20;99.90;;;;;;5011790;28;20672;-73
2021/01/14 12:37:35;;;;;;;18.57;11.80;;;0.30;99.90;;;;;;5010342;28;20252;-73
2021/01/14 12:40:01;;;;;;;18.90;11.23;;;0.30;99.90;;;;;;5010572;28;20305;-73
2021/01/14 12:42:27;;;;;;;18.63;11.87;;;0.30;99.90;;;;;;5006031;28;20203;-75
2021/01/14 12:44:54;;;;;;;19.23;11.97;;;0.30;99.90;;;;;;5010430;28;20222;-74
2021/01/14 12:47:20;;;;;;;20.00;11.97;;;0.30;99.90;;;;;;5009493;28;20302;-72
2021/01/14 12:49:47;;;;;;;19.30;12.40;;;0.30;99.90;;;;;;5007395;28;20758;-72
2021/01/14 12:52:13;;;;;;;18.90;10.63;;;0.30;99.90;;;;;;5011002;28;20227;-74